sensor_id;sensor_type;location;lat;lon;timestamp;temperature;humidity
14277;DHT22;7222;57.346;12.150;2023-09-12T00:00:46;18.60;99.90
14277;DHT22;7222;57.346;12.150;2023-09-12T00:03:13;18.60;99.90
14277;DHT22;7222;57.346;12.150;2023-09-12T00:05:40;18.60;99.90
14277;DHT22;7222;57.346;12.150;2023-09-12T00:08:07;18.60;99.90
14277;DHT22;7222;57.346;12.150;2023-09-12T00:10:34;18.60;99.90
14277;DHT22;7222;57.346;12.150;2023-09-12T00:13:10;18.60;99.90
14277;DHT22;7222;57.346;12.150;2023-09-12T00:15:41;18.70;99.90
14277;DHT22;7222;57.346;12.150;2023-09-12T00:18:09;18.70;99.90
14277;DHT22;7222;57.346;12.150;2023-09-12T00:20:36;18.70;99.90
14277;DHT22;7222;57.346;12.150;2023-09-12T00:23:03;18.60;99.90
14277;DHT22;7222;57.346;12.150;2023-09-12T00:25:30;18.60;99.90
14277;DHT22;7222;57.346;12.150;2023-09-12T00:27:57;18.70;99.90
14277;DHT22;7222;57.346;12.150;2023-09-12T00:30:24;18.70;99.90
14277;DHT22;7222;57.346;12.150;2023-09-12T00:32:53;18.80;99.90
14277;DHT22;7222;57.346;12.150;2023-09-12T00:35:20;18.80;99.90
14277;DHT22;7222;57.346;12.150;2023-09-12T00:37:47;18.90;99.90
14277;DHT22;7222;57.346;12.150;2023-09-12T00:40:14;18.80;99.90
14277;DHT22;7222;57.346;12.150;2023-09-12T00:42:41;18.80;99.90
14277;DHT22;7222;57.346;12.150;2023-09-12T00:45:09;18.90;99.90
14277;DHT22;7222;57.346;12.150;2023-09-12T00:47:37;18.80;99.90
14277;DHT22;7222;57.346;12.150;2023-09-12T00:50:08;18.80;99.90
14277;DHT22;7222;57.346;12.150;2023-09-12T00:52:36;18.90;99.90
14277;DHT22;7222;57.346;12.150;2023-09-12T00:55:05;18.90;99.90
14277;DHT22;7222;57.346;12.150;2023-09-12T00:57:34;19.00;99.90
14277;DHT22;7222;57.346;12.150;2023-09-12T01:00:02;19.10;99.90
14277;DHT22;7222;57.346;12.150;2023-09-12T01:02:37;19.10;99.90
14277;DHT22;7222;57.346;12.150;2023-09-12T01:05:07;19.20;99.90
14277;DHT22;7222;57.346;12.150;2023-09-12T01:07:35;19.20;99.90
14277;DHT22;7222;57.346;12.150;2023-09-12T01:10:03;19.30;99.90
14277;DHT22;7222;57.346;12.150;2023-09-12T01:12:30;19.40;99.90
14277;DHT22;7222;57.346;12.150;2023-09-12T01:14:58;19.40;99.90
14277;DHT22;7222;57.346;12.150;2023-09-12T01:17:26;19.40;99.90
14277;DHT22;7222;57.346;12.150;2023-09-12T01:19:54;19.40;99.90
14277;DHT22;7222;57.346;12.150;2023-09-12T01:25:40;19.50;99.90
14277;DHT22;7222;57.346;12.150;2023-09-12T01:28:12;19.50;99.90
14277;DHT22;7222;57.346;12.150;2023-09-12T01:30:42;19.50;99.90
14277;DHT22;7222;57.346;12.150;2023-09-12T01:33:09;19.50;99.90
14277;DHT22;7222;57.346;12.150;2023-09-12T01:35:37;19.50;99.90
14277;DHT22;7222;57.346;12.150;2023-09-12T01:38:04;19.60;99.90
14277;DHT22;7222;57.346;12.150;2023-09-12T01:40:35;19.60;99.90
14277;DHT22;7222;57.346;12.150;2023-09-12T01:43:04;19.60;99.90
14277;DHT22;7222;57.346;12.150;2023-09-12T01:45:41;19.60;99.90
14277;DHT22;7222;57.346;12.150;2023-09-12T01:48:08;19.70;99.90
14277;DHT22;7222;57.346;12.150;2023-09-12T01:50:38;19.60;99.90
14277;DHT22;7222;57.346;12.150;2023-09-12T01:53:06;19.60;99.90
14277;DHT22;7222;57.346;12.150;2023-09-12T01:55:33;19.60;99.90
14277;DHT22;7222;57.346;12.150;2023-09-12T01:58:02;19.70;99.90
14277;DHT22;7222;57.346;12.150;2023-09-12T02:00:29;19.60;99.90
14277;DHT22;7222;57.346;12.150;2023-09-12T02:02:58;19.60;99.90
14277;DHT22;7222;57.346;12.150;2023-09-12T02:05:26;19.70;99.90
14277;DHT22;7222;57.346;12.150;2023-09-12T02:07:54;19.70;99.90
14277;DHT22;7222;57.346;12.150;2023-09-12T02:10:21;19.70;99.90
14277;DHT22;7222;57.346;12.150;2023-09-12T02:12:48;19.70;99.90
14277;DHT22;7222;57.346;12.150;2023-09-12T02:15:16;19.70;99.90
14277;DHT22;7222;57.346;12.150;2023-09-12T02:17:43;19.60;99.90
14277;DHT22;7222;57.346;12.150;2023-09-12T02:20:11;19.70;99.90
14277;DHT22;7222;57.346;12.150;2023-09-12T02:22:38;19.70;99.90
14277;DHT22;7222;57.346;12.150;2023-09-12T02:25:07;19.60;99.90
14277;DHT22;7222;57.346;12.150;2023-09-12T02:27:34;19.50;99.90
14277;DHT22;7222;57.346;12.150;2023-09-12T02:30:01;19.50;99.90
14277;DHT22;7222;57.346;12.150;2023-09-12T02:32:29;19.50;99.90
14277;DHT22;7222;57.346;12.150;2023-09-12T02:34:56;19.40;99.90
14277;DHT22;7222;57.346;12.150;2023-09-12T02:37:25;19.30;99.90
14277;DHT22;7222;57.346;12.150;2023-09-12T02:39:52;19.30;99.90
14277;DHT22;7222;57.346;12.150;2023-09-12T02:42:20;19.10;99.90
14277;DHT22;7222;57.346;12.150;2023-09-12T02:44:47;19.10;99.90
14277;DHT22;7222;57.346;12.150;2023-09-12T02:47:15;19.00;99.90
14277;DHT22;7222;57.346;12.150;2023-09-12T02:49:42;19.20;99.90
14277;DHT22;7222;57.346;12.150;2023-09-12T02:52:09;19.00;99.90
14277;DHT22;7222;57.346;12.150;2023-09-12T02:54:38;18.90;99.90
14277;DHT22;7222;57.346;12.150;2023-09-12T02:57:05;19.00;99.90
14277;DHT22;7222;57.346;12.150;2023-09-12T02:59:32;19.00;99.90
14277;DHT22;7222;57.346;12.150;2023-09-12T03:02:00;18.90;99.90
14277;DHT22;7222;57.346;12.150;2023-09-12T03:04:27;18.90;99.90
14277;DHT22;7222;57.346;12.150;2023-09-12T03:06:54;18.90;99.90
14277;DHT22;7222;57.346;12.150;2023-09-12T03:09:21;19.00;99.90
14277;DHT22;7222;57.346;12.150;2023-09-12T03:12:06;19.00;99.90
14277;DHT22;7222;57.346;12.150;2023-09-12T03:14:33;18.90;99.90
14277;DHT22;7222;57.346;12.150;2023-09-12T03:17:01;19.00;99.90
14277;DHT22;7222;57.346;12.150;2023-09-12T03:19:30;18.90;99.90
14277;DHT22;7222;57.346;12.150;2023-09-12T03:21:57;19.00;99.90
14277;DHT22;7222;57.346;12.150;2023-09-12T03:24:24;18.90;99.90
14277;DHT22;7222;57.346;12.150;2023-09-12T03:26:54;19.00;99.90
14277;DHT22;7222;57.346;12.150;2023-09-12T03:29:23;19.10;99.90
14277;DHT22;7222;57.346;12.150;2023-09-12T03:31:50;18.90;99.90
14277;DHT22;7222;57.346;12.150;2023-09-12T03:34:17;19.00;99.90
14277;DHT22;7222;57.346;12.150;2023-09-12T03:36:45;19.10;99.90
14277;DHT22;7222;57.346;12.150;2023-09-12T03:39:12;19.00;99.90
14277;DHT22;7222;57.346;12.150;2023-09-12T03:41:40;18.90;99.90
14277;DHT22;7222;57.346;12.150;2023-09-12T03:44:08;19.10;99.90
14277;DHT22;7222;57.346;12.150;2023-09-12T03:46:36;19.00;99.90
14277;DHT22;7222;57.346;12.150;2023-09-12T03:49:03;19.20;99.90
14277;DHT22;7222;57.346;12.150;2023-09-12T03:51:31;19.20;99.90
14277;DHT22;7222;57.346;12.150;2023-09-12T03:53:58;19.00;99.90
14277;DHT22;7222;57.346;12.150;2023-09-12T03:56:28;19.20;99.90
14277;DHT22;7222;57.346;12.150;2023-09-12T03:58:55;19.20;99.90
14277;DHT22;7222;57.346;12.150;2023-09-12T04:01:24;19.10;99.90
14277;DHT22;7222;57.346;12.150;2023-09-12T04:03:53;19.20;99.90
14277;DHT22;7222;57.346;12.150;2023-09-12T04:06:20;19.00;99.90
14277;DHT22;7222;57.346;12.150;2023-09-12T04:08:47;19.10;99.90
14277;DHT22;7222;57.346;12.150;2023-09-12T04:11:14;19.00;99.90
14277;DHT22;7222;57.346;12.150;2023-09-12T04:13:42;19.10;99.90
14277;DHT22;7222;57.346;12.150;2023-09-12T04:16:09;19.00;99.90
14277;DHT22;7222;57.346;12.150;2023-09-12T04:18:36;18.90;99.90
14277;DHT22;7222;57.346;12.150;2023-09-12T04:21:05;19.00;99.90
14277;DHT22;7222;57.346;12.150;2023-09-12T04:23:32;19.00;99.90
14277;DHT22;7222;57.346;12.150;2023-09-12T04:25:59;19.10;99.90
14277;DHT22;7222;57.346;12.150;2023-09-12T04:28:29;18.90;99.90
14277;DHT22;7222;57.346;12.150;2023-09-12T04:31:01;19.00;99.90
14277;DHT22;7222;57.346;12.150;2023-09-12T04:33:29;19.10;99.90
14277;DHT22;7222;57.346;12.150;2023-09-12T04:35:58;19.00;99.90
14277;DHT22;7222;57.346;12.150;2023-09-12T04:38:27;19.00;99.90
14277;DHT22;7222;57.346;12.150;2023-09-12T04:40:55;19.10;99.90
14277;DHT22;7222;57.346;12.150;2023-09-12T04:43:23;19.00;99.90
14277;DHT22;7222;57.346;12.150;2023-09-12T04:45:50;19.10;99.90
14277;DHT22;7222;57.346;12.150;2023-09-12T04:48:17;19.10;99.90
14277;DHT22;7222;57.346;12.150;2023-09-12T04:50:44;19.20;99.90
14277;DHT22;7222;57.346;12.150;2023-09-12T04:53:11;19.20;99.90
14277;DHT22;7222;57.346;12.150;2023-09-12T04:55:41;19.20;99.90
14277;DHT22;7222;57.346;12.150;2023-09-12T04:58:08;19.10;99.90
14277;DHT22;7222;57.346;12.150;2023-09-12T05:00:35;19.10;99.90
14277;DHT22;7222;57.346;12.150;2023-09-12T05:03:03;19.20;99.90
14277;DHT22;7222;57.346;12.150;2023-09-12T05:05:30;19.10;99.90
14277;DHT22;7222;57.346;12.150;2023-09-12T05:07:57;19.10;99.90
14277;DHT22;7222;57.346;12.150;2023-09-12T05:10:24;19.10;99.90
14277;DHT22;7222;57.346;12.150;2023-09-12T05:12:53;19.20;99.90
14277;DHT22;7222;57.346;12.150;2023-09-12T05:15:20;19.10;99.90
14277;DHT22;7222;57.346;12.150;2023-09-12T05:17:47;18.90;99.90
14277;DHT22;7222;57.346;12.150;2023-09-12T05:20:14;19.00;99.90
14277;DHT22;7222;57.346;12.150;2023-09-12T05:22:41;18.90;99.90
14277;DHT22;7222;57.346;12.150;2023-09-12T05:25:09;19.10;99.90
14277;DHT22;7222;57.346;12.150;2023-09-12T05:27:36;19.00;99.90
14277;DHT22;7222;57.346;12.150;2023-09-12T05:30:05;18.90;99.90
14277;DHT22;7222;57.346;12.150;2023-09-12T05:32:33;18.80;99.90
14277;DHT22;7222;57.346;12.150;2023-09-12T05:35:02;18.90;99.90
14277;DHT22;7222;57.346;12.150;2023-09-12T05:37:29;18.80;99.90
14277;DHT22;7222;57.346;12.150;2023-09-12T05:39:56;18.70;99.90
14277;DHT22;7222;57.346;12.150;2023-09-12T05:42:23;18.60;99.90
14277;DHT22;7222;57.346;12.150;2023-09-12T05:44:51;18.80;99.90
14277;DHT22;7222;57.346;12.150;2023-09-12T05:47:20;18.90;99.90
14277;DHT22;7222;57.346;12.150;2023-09-12T05:49:47;18.70;99.90
14277;DHT22;7222;57.346;12.150;2023-09-12T05:52:14;18.80;99.90
14277;DHT22;7222;57.346;12.150;2023-09-12T05:54:42;18.80;99.90
14277;DHT22;7222;57.346;12.150;2023-09-12T05:57:09;18.70;99.90
14277;DHT22;7222;57.346;12.150;2023-09-12T05:59:38;18.70;99.90
14277;DHT22;7222;57.346;12.150;2023-09-12T06:02:06;18.70;99.90
14277;DHT22;7222;57.346;12.150;2023-09-12T06:04:36;18.70;99.90
14277;DHT22;7222;57.346;12.150;2023-09-12T06:07:04;18.80;99.90
14277;DHT22;7222;57.346;12.150;2023-09-12T06:09:31;18.90;99.90
14277;DHT22;7222;57.346;12.150;2023-09-12T06:11:58;18.80;99.90
14277;DHT22;7222;57.346;12.150;2023-09-12T06:17:03;18.90;99.90
14277;DHT22;7222;57.346;12.150;2023-09-12T06:19:30;19.00;99.90
14277;DHT22;7222;57.346;12.150;2023-09-12T06:21:59;18.90;99.90
14277;DHT22;7222;57.346;12.150;2023-09-12T06:24:26;19.00;99.90
14277;DHT22;7222;57.346;12.150;2023-09-12T06:26:53;19.10;99.90
14277;DHT22;7222;57.346;12.150;2023-09-12T06:29:20;19.10;99.90
14277;DHT22;7222;57.346;12.150;2023-09-12T06:31:48;19.20;99.90
14277;DHT22;7222;57.346;12.150;2023-09-12T06:34:15;19.20;99.90
14277;DHT22;7222;57.346;12.150;2023-09-12T06:36:42;19.10;99.90
14277;DHT22;7222;57.346;12.150;2023-09-12T06:39:12;19.20;99.90
14277;DHT22;7222;57.346;12.150;2023-09-12T06:41:39;19.20;99.90
14277;DHT22;7222;57.346;12.150;2023-09-12T06:44:06;19.20;99.90
14277;DHT22;7222;57.346;12.150;2023-09-12T06:46:33;19.30;99.90
14277;DHT22;7222;57.346;12.150;2023-09-12T06:49:03;19.40;99.90
14277;DHT22;7222;57.346;12.150;2023-09-12T06:51:30;19.30;99.90
14277;DHT22;7222;57.346;12.150;2023-09-12T06:53:57;19.30;99.90
14277;DHT22;7222;57.346;12.150;2023-09-12T06:56:26;19.60;99.90
14277;DHT22;7222;57.346;12.150;2023-09-12T06:58:54;19.50;99.90
14277;DHT22;7222;57.346;12.150;2023-09-12T07:01:21;19.60;99.90
14277;DHT22;7222;57.346;12.150;2023-09-12T07:03:48;19.80;99.90
14277;DHT22;7222;57.346;12.150;2023-09-12T07:06:19;19.80;99.90
14277;DHT22;7222;57.346;12.150;2023-09-12T07:08:46;19.60;99.90
14277;DHT22;7222;57.346;12.150;2023-09-12T07:11:17;19.70;99.90
14277;DHT22;7222;57.346;12.150;2023-09-12T07:13:47;19.60;99.90
14277;DHT22;7222;57.346;12.150;2023-09-12T07:16:14;19.50;99.90
14277;DHT22;7222;57.346;12.150;2023-09-12T07:18:41;19.50;99.90
14277;DHT22;7222;57.346;12.150;2023-09-12T07:21:09;19.50;99.90
14277;DHT22;7222;57.346;12.150;2023-09-12T07:23:38;19.60;99.90
14277;DHT22;7222;57.346;12.150;2023-09-12T07:26:05;19.70;99.90
14277;DHT22;7222;57.346;12.150;2023-09-12T07:28:32;19.60;99.90
14277;DHT22;7222;57.346;12.150;2023-09-12T07:31:01;19.80;99.90
14277;DHT22;7222;57.346;12.150;2023-09-12T07:33:28;19.70;99.90
14277;DHT22;7222;57.346;12.150;2023-09-12T07:35:55;19.70;99.90
14277;DHT22;7222;57.346;12.150;2023-09-12T07:38:22;19.80;99.90
14277;DHT22;7222;57.346;12.150;2023-09-12T07:40:49;19.80;99.90
14277;DHT22;7222;57.346;12.150;2023-09-12T07:43:16;19.70;99.90
14277;DHT22;7222;57.346;12.150;2023-09-12T07:45:43;19.80;99.90
14277;DHT22;7222;57.346;12.150;2023-09-12T07:48:13;19.70;99.90
14277;DHT22;7222;57.346;12.150;2023-09-12T07:50:41;19.80;99.90
14277;DHT22;7222;57.346;12.150;2023-09-12T07:53:08;19.80;99.90
14277;DHT22;7222;57.346;12.150;2023-09-12T07:55:37;19.70;99.90
14277;DHT22;7222;57.346;12.150;2023-09-12T07:58:11;19.90;99.90
14277;DHT22;7222;57.346;12.150;2023-09-12T08:00:38;19.90;99.90
14277;DHT22;7222;57.346;12.150;2023-09-12T08:03:05;20.10;99.90
14277;DHT22;7222;57.346;12.150;2023-09-12T08:05:34;19.90;99.90
14277;DHT22;7222;57.346;12.150;2023-09-12T08:08:02;19.90;99.90
14277;DHT22;7222;57.346;12.150;2023-09-12T08:10:29;20.00;99.90
14277;DHT22;7222;57.346;12.150;2023-09-12T08:12:56;20.00;99.90
14277;DHT22;7222;57.346;12.150;2023-09-12T08:15:24;20.10;99.90
14277;DHT22;7222;57.346;12.150;2023-09-12T08:17:51;20.10;99.90
14277;DHT22;7222;57.346;12.150;2023-09-12T08:20:20;20.20;99.90
14277;DHT22;7222;57.346;12.150;2023-09-12T08:22:48;20.20;99.90
14277;DHT22;7222;57.346;12.150;2023-09-12T08:25:15;20.20;99.90
14277;DHT22;7222;57.346;12.150;2023-09-12T08:27:43;20.10;99.90
14277;DHT22;7222;57.346;12.150;2023-09-12T08:30:11;20.10;99.90
14277;DHT22;7222;57.346;12.150;2023-09-12T08:32:39;19.90;99.90
14277;DHT22;7222;57.346;12.150;2023-09-12T08:35:09;20.00;99.90
14277;DHT22;7222;57.346;12.150;2023-09-12T08:37:38;19.90;99.90
14277;DHT22;7222;57.346;12.150;2023-09-12T08:40:08;20.00;99.90
14277;DHT22;7222;57.346;12.150;2023-09-12T08:42:39;20.10;99.90
14277;DHT22;7222;57.346;12.150;2023-09-12T08:45:12;19.80;99.90
14277;DHT22;7222;57.346;12.150;2023-09-12T08:47:41;19.90;99.90
14277;DHT22;7222;57.346;12.150;2023-09-12T08:50:10;19.80;99.90
14277;DHT22;7222;57.346;12.150;2023-09-12T08:52:39;19.80;99.90
14277;DHT22;7222;57.346;12.150;2023-09-12T08:55:09;19.80;99.90
14277;DHT22;7222;57.346;12.150;2023-09-12T08:57:38;19.80;99.90
14277;DHT22;7222;57.346;12.150;2023-09-12T09:00:06;19.70;99.90
14277;DHT22;7222;57.346;12.150;2023-09-12T09:02:36;19.80;99.90
14277;DHT22;7222;57.346;12.150;2023-09-12T09:05:04;19.80;99.90
14277;DHT22;7222;57.346;12.150;2023-09-12T09:07:33;19.90;99.90
14277;DHT22;7222;57.346;12.150;2023-09-12T09:10:02;20.00;99.90
14277;DHT22;7222;57.346;12.150;2023-09-12T09:12:32;20.10;99.90
14277;DHT22;7222;57.346;12.150;2023-09-12T09:15:20;20.00;99.90
14277;DHT22;7222;57.346;12.150;2023-09-12T09:17:47;20.00;99.90
14277;DHT22;7222;57.346;12.150;2023-09-12T09:20:22;20.00;99.90
14277;DHT22;7222;57.346;12.150;2023-09-12T09:22:57;19.90;99.90
14277;DHT22;7222;57.346;12.150;2023-09-12T09:25:24;19.90;99.90
14277;DHT22;7222;57.346;12.150;2023-09-12T09:27:54;20.00;99.90
14277;DHT22;7222;57.346;12.150;2023-09-12T09:30:39;20.00;99.90
14277;DHT22;7222;57.346;12.150;2023-09-12T09:33:08;20.00;99.90
14277;DHT22;7222;57.346;12.150;2023-09-12T09:35:36;19.90;99.90
14277;DHT22;7222;57.346;12.150;2023-09-12T09:38:03;19.80;99.90
14277;DHT22;7222;57.346;12.150;2023-09-12T09:40:32;19.90;99.90
14277;DHT22;7222;57.346;12.150;2023-09-12T09:43:02;20.00;99.90
14277;DHT22;7222;57.346;12.150;2023-09-12T09:45:30;20.00;99.90
14277;DHT22;7222;57.346;12.150;2023-09-12T09:48:03;20.10;99.90
14277;DHT22;7222;57.346;12.150;2023-09-12T09:50:33;20.10;99.90
14277;DHT22;7222;57.346;12.150;2023-09-12T09:53:03;20.00;99.90
14277;DHT22;7222;57.346;12.150;2023-09-12T09:55:34;20.10;99.90
14277;DHT22;7222;57.346;12.150;2023-09-12T09:58:03;20.10;99.90
14277;DHT22;7222;57.346;12.150;2023-09-12T10:00:33;20.10;99.90
14277;DHT22;7222;57.346;12.150;2023-09-12T10:03:02;20.00;99.90
14277;DHT22;7222;57.346;12.150;2023-09-12T10:05:32;20.20;99.90
14277;DHT22;7222;57.346;12.150;2023-09-12T10:07:59;20.00;99.90
14277;DHT22;7222;57.346;12.150;2023-09-12T10:10:29;20.00;99.90
14277;DHT22;7222;57.346;12.150;2023-09-12T10:12:57;20.00;99.90
14277;DHT22;7222;57.346;12.150;2023-09-12T10:15:29;19.90;99.90
14277;DHT22;7222;57.346;12.150;2023-09-12T10:17:57;20.00;99.90
14277;DHT22;7222;57.346;12.150;2023-09-12T10:20:28;20.10;99.90
14277;DHT22;7222;57.346;12.150;2023-09-12T10:23:05;19.90;99.90
14277;DHT22;7222;57.346;12.150;2023-09-12T10:25:37;20.00;99.90
14277;DHT22;7222;57.346;12.150;2023-09-12T10:28:05;20.00;99.90
14277;DHT22;7222;57.346;12.150;2023-09-12T10:30:35;20.10;99.90
14277;DHT22;7222;57.346;12.150;2023-09-12T10:33:03;20.00;99.90
14277;DHT22;7222;57.346;12.150;2023-09-12T10:35:31;20.00;99.90
14277;DHT22;7222;57.346;12.150;2023-09-12T10:38:01;20.10;99.90
14277;DHT22;7222;57.346;12.150;2023-09-12T10:40:31;20.10;99.90
14277;DHT22;7222;57.346;12.150;2023-09-12T10:43:00;20.20;99.90
14277;DHT22;7222;57.346;12.150;2023-09-12T10:45:30;20.20;99.90
14277;DHT22;7222;57.346;12.150;2023-09-12T10:47:59;20.30;99.90
14277;DHT22;7222;57.346;12.150;2023-09-12T10:50:27;20.50;99.90
14277;DHT22;7222;57.346;12.150;2023-09-12T10:52:54;20.60;99.90
14277;DHT22;7222;57.346;12.150;2023-09-12T10:55:22;20.50;99.90
14277;DHT22;7222;57.346;12.150;2023-09-12T10:58:02;20.70;99.90
14277;DHT22;7222;57.346;12.150;2023-09-12T11:00:29;21.00;99.90
14277;DHT22;7222;57.346;12.150;2023-09-12T11:03:01;21.10;99.90
14277;DHT22;7222;57.346;12.150;2023-09-12T11:05:52;21.10;99.90
14277;DHT22;7222;57.346;12.150;2023-09-12T11:08:20;21.20;99.90
14277;DHT22;7222;57.346;12.150;2023-09-12T11:11:17;21.20;99.90
14277;DHT22;7222;57.346;12.150;2023-09-12T11:13:45;21.30;99.90
14277;DHT22;7222;57.346;12.150;2023-09-12T11:16:13;21.20;99.90
14277;DHT22;7222;57.346;12.150;2023-09-12T11:19:19;21.30;99.90
14277;DHT22;7222;57.346;12.150;2023-09-12T11:21:50;21.20;99.90
14277;DHT22;7222;57.346;12.150;2023-09-12T11:24:18;21.00;99.90
14277;DHT22;7222;57.346;12.150;2023-09-12T11:26:53;21.10;99.90
14277;DHT22;7222;57.346;12.150;2023-09-12T11:29:20;21.00;99.90
14277;DHT22;7222;57.346;12.150;2023-09-12T11:31:59;21.20;99.90
14277;DHT22;7222;57.346;12.150;2023-09-12T11:34:38;21.30;99.90
14277;DHT22;7222;57.346;12.150;2023-09-12T11:37:05;21.20;99.90
14277;DHT22;7222;57.346;12.150;2023-09-12T11:39:33;21.30;99.90
14277;DHT22;7222;57.346;12.150;2023-09-12T11:42:02;21.20;99.90
14277;DHT22;7222;57.346;12.150;2023-09-12T11:44:30;21.40;99.90
14277;DHT22;7222;57.346;12.150;2023-09-12T11:46:59;21.50;99.90
14277;DHT22;7222;57.346;12.150;2023-09-12T11:49:37;21.30;99.90
14277;DHT22;7222;57.346;12.150;2023-09-12T11:52:08;21.50;99.90
14277;DHT22;7222;57.346;12.150;2023-09-12T11:54:35;21.70;99.90
14277;DHT22;7222;57.346;12.150;2023-09-12T11:57:03;21.40;99.90
14277;DHT22;7222;57.346;12.150;2023-09-12T11:59:30;21.70;99.90
14277;DHT22;7222;57.346;12.150;2023-09-12T12:02:08;21.50;99.90
14277;DHT22;7222;57.346;12.150;2023-09-12T12:04:35;21.60;99.90
14277;DHT22;7222;57.346;12.150;2023-09-12T12:07:03;21.50;99.90
14277;DHT22;7222;57.346;12.150;2023-09-12T12:09:30;21.80;99.90
14277;DHT22;7222;57.346;12.150;2023-09-12T12:12:02;21.90;99.90
14277;DHT22;7222;57.346;12.150;2023-09-12T12:14:33;21.30;99.90
14277;DHT22;7222;57.346;12.150;2023-09-12T12:17:07;21.30;99.90
14277;DHT22;7222;57.346;12.150;2023-09-12T12:19:35;21.50;99.90
14277;DHT22;7222;57.346;12.150;2023-09-12T12:22:03;22.00;99.90
14277;DHT22;7222;57.346;12.150;2023-09-12T12:24:40;21.90;99.90
14277;DHT22;7222;57.346;12.150;2023-09-12T12:27:07;22.20;99.90
14277;DHT22;7222;57.346;12.150;2023-09-12T12:29:36;22.10;99.90
14277;DHT22;7222;57.346;12.150;2023-09-12T12:32:05;21.70;99.90
14277;DHT22;7222;57.346;12.150;2023-09-12T12:34:36;21.20;99.90
14277;DHT22;7222;57.346;12.150;2023-09-12T12:37:03;21.50;99.90
14277;DHT22;7222;57.346;12.150;2023-09-12T12:39:31;21.10;99.90
14277;DHT22;7222;57.346;12.150;2023-09-12T12:41:59;21.20;99.90
14277;DHT22;7222;57.346;12.150;2023-09-12T12:44:33;21.30;99.90
14277;DHT22;7222;57.346;12.150;2023-09-12T12:47:04;20.70;99.90
14277;DHT22;7222;57.346;12.150;2023-09-12T12:49:37;20.80;99.90
14277;DHT22;7222;57.346;12.150;2023-09-12T12:52:05;20.90;99.90
14277;DHT22;7222;57.346;12.150;2023-09-12T12:54:32;20.70;99.90
14277;DHT22;7222;57.346;12.150;2023-09-12T12:57:00;20.80;99.90
14277;DHT22;7222;57.346;12.150;2023-09-12T12:59:28;21.10;99.90
14277;DHT22;7222;57.346;12.150;2023-09-12T13:02:00;20.60;99.90
14277;DHT22;7222;57.346;12.150;2023-09-12T13:04:27;20.90;99.90
14277;DHT22;7222;57.346;12.150;2023-09-12T13:06:55;20.60;99.90
14277;DHT22;7222;57.346;12.150;2023-09-12T13:09:22;20.80;99.90
14277;DHT22;7222;57.346;12.150;2023-09-12T13:11:48;20.80;99.90
14277;DHT22;7222;57.346;12.150;2023-09-12T13:14:15;20.70;99.90
14277;DHT22;7222;57.346;12.150;2023-09-12T13:16:42;21.30;99.90
14277;DHT22;7222;57.346;12.150;2023-09-12T13:19:09;21.50;99.90
14277;DHT22;7222;57.346;12.150;2023-09-12T13:21:38;21.30;99.90
14277;DHT22;7222;57.346;12.150;2023-09-12T13:24:07;21.30;99.90
14277;DHT22;7222;57.346;12.150;2023-09-12T13:26:33;21.10;99.90
14277;DHT22;7222;57.346;12.150;2023-09-12T13:29:00;20.60;99.90
14277;DHT22;7222;57.346;12.150;2023-09-12T13:31:27;20.60;99.90
14277;DHT22;7222;57.346;12.150;2023-09-12T13:33:54;20.80;99.90
14277;DHT22;7222;57.346;12.150;2023-09-12T13:36:21;20.80;99.90
14277;DHT22;7222;57.346;12.150;2023-09-12T13:38:49;20.40;99.90
14277;DHT22;7222;57.346;12.150;2023-09-12T13:41:18;20.50;99.90
14277;DHT22;7222;57.346;12.150;2023-09-12T13:43:47;21.10;99.90
14277;DHT22;7222;57.346;12.150;2023-09-12T13:46:14;20.90;99.90
14277;DHT22;7222;57.346;12.150;2023-09-12T13:48:41;21.10;99.90
14277;DHT22;7222;57.346;12.150;2023-09-12T13:51:08;21.50;99.90
14277;DHT22;7222;57.346;12.150;2023-09-12T13:53:35;21.20;99.90
14277;DHT22;7222;57.346;12.150;2023-09-12T13:56:02;21.50;99.90
14277;DHT22;7222;57.346;12.150;2023-09-12T13:58:30;21.50;99.90
14277;DHT22;7222;57.346;12.150;2023-09-12T14:00:58;21.60;99.90
14277;DHT22;7222;57.346;12.150;2023-09-12T14:03:25;21.60;99.90
14277;DHT22;7222;57.346;12.150;2023-09-12T14:05:52;21.30;99.90
14277;DHT22;7222;57.346;12.150;2023-09-12T14:08:19;21.60;99.90
14277;DHT22;7222;57.346;12.150;2023-09-12T14:10:46;21.60;99.90
14277;DHT22;7222;57.346;12.150;2023-09-12T14:13:13;21.10;99.90
14277;DHT22;7222;57.346;12.150;2023-09-12T14:15:41;21.20;99.90
14277;DHT22;7222;57.346;12.150;2023-09-12T14:18:08;21.00;99.90
14277;DHT22;7222;57.346;12.150;2023-09-12T14:20:35;21.20;99.90
14277;DHT22;7222;57.346;12.150;2023-09-12T14:23:02;20.90;99.90
14277;DHT22;7222;57.346;12.150;2023-09-12T14:25:29;21.50;99.90
14277;DHT22;7222;57.346;12.150;2023-09-12T14:27:56;21.50;99.90
14277;DHT22;7222;57.346;12.150;2023-09-12T14:30:22;21.50;99.90
14277;DHT22;7222;57.346;12.150;2023-09-12T14:32:53;21.70;99.90
14277;DHT22;7222;57.346;12.150;2023-09-12T14:35:20;21.60;99.90
14277;DHT22;7222;57.346;12.150;2023-09-12T14:37:47;21.20;99.90
14277;DHT22;7222;57.346;12.150;2023-09-12T14:40:14;21.60;99.90
14277;DHT22;7222;57.346;12.150;2023-09-12T14:42:42;21.90;99.90
14277;DHT22;7222;57.346;12.150;2023-09-12T14:45:10;21.50;99.90
14277;DHT22;7222;57.346;12.150;2023-09-12T14:47:36;21.10;99.90
14277;DHT22;7222;57.346;12.150;2023-09-12T14:50:05;20.70;99.90
14277;DHT22;7222;57.346;12.150;2023-09-12T14:52:33;21.00;99.90
14277;DHT22;7222;57.346;12.150;2023-09-12T14:55:00;21.30;99.90
14277;DHT22;7222;57.346;12.150;2023-09-12T14:57:29;21.50;99.90
14277;DHT22;7222;57.346;12.150;2023-09-12T14:59:56;21.40;99.90
14277;DHT22;7222;57.346;12.150;2023-09-12T15:02:25;21.00;99.90
14277;DHT22;7222;57.346;12.150;2023-09-12T15:04:56;20.80;99.90
14277;DHT22;7222;57.346;12.150;2023-09-12T15:07:25;21.60;99.90
14277;DHT22;7222;57.346;12.150;2023-09-12T15:09:51;21.60;99.90
14277;DHT22;7222;57.346;12.150;2023-09-12T15:12:18;21.00;99.90
14277;DHT22;7222;57.346;12.150;2023-09-12T15:14:45;21.00;99.90
14277;DHT22;7222;57.346;12.150;2023-09-12T15:17:12;21.20;99.90
14277;DHT22;7222;57.346;12.150;2023-09-12T15:19:39;21.50;99.90
14277;DHT22;7222;57.346;12.150;2023-09-12T15:22:06;21.40;99.90
14277;DHT22;7222;57.346;12.150;2023-09-12T15:24:34;21.80;99.90
14277;DHT22;7222;57.346;12.150;2023-09-12T15:27:01;21.90;99.90
14277;DHT22;7222;57.346;12.150;2023-09-12T15:29:27;21.30;99.90
14277;DHT22;7222;57.346;12.150;2023-09-12T15:31:54;21.10;99.90
14277;DHT22;7222;57.346;12.150;2023-09-12T15:34:22;20.90;99.90
14277;DHT22;7222;57.346;12.150;2023-09-12T15:36:49;21.00;99.90
14277;DHT22;7222;57.346;12.150;2023-09-12T15:39:16;21.10;99.90
14277;DHT22;7222;57.346;12.150;2023-09-12T15:41:44;21.00;99.90
14277;DHT22;7222;57.346;12.150;2023-09-12T15:44:11;20.50;99.90